sensor_id;sensor_type;location;lat;lon;timestamp;P1;durP1;ratioP1;P2;durP2;ratioP2
40629;SDS011;26329;40.388;-3.710;2022-12-18T00:00:04;29.35;;;18.60;;
40629;SDS011;26329;40.388;-3.710;2022-12-18T00:10:08;29.40;;;18.95;;
40629;SDS011;26329;40.388;-3.710;2022-12-18T00:20:11;29.67;;;18.03;;
40629;SDS011;26329;40.388;-3.710;2022-12-18T00:30:13;54.47;;;20.42;;
40629;SDS011;26329;40.388;-3.710;2022-12-18T00:40:15;50.10;;;18.85;;
40629;SDS011;26329;40.388;-3.710;2022-12-18T00:50:17;38.25;;;19.60;;
40629;SDS011;26329;40.388;-3.710;2022-12-18T01:00:19;56.22;;;21.25;;
40629;SDS011;26329;40.388;-3.710;2022-12-18T01:10:21;56.50;;;19.65;;
40629;SDS011;26329;40.388;-3.710;2022-12-18T01:20:24;41.30;;;18.85;;
40629;SDS011;26329;40.388;-3.710;2022-12-18T01:30:27;44.78;;;18.38;;
40629;SDS011;26329;40.388;-3.710;2022-12-18T01:40:29;285.33;;;22.48;;
40629;SDS011;26329;40.388;-3.710;2022-12-18T02:00:42;77.50;;;21.38;;
40629;SDS011;26329;40.388;-3.710;2022-12-18T02:10:47;51.42;;;20.65;;
40629;SDS011;26329;40.388;-3.710;2022-12-18T02:31:52;30.52;;;16.88;;
40629;SDS011;26329;40.388;-3.710;2022-12-18T02:42:03;79.57;;;17.25;;
40629;SDS011;26329;40.388;-3.710;2022-12-18T03:02:48;48.92;;;15.10;;
40629;SDS011;26329;40.388;-3.710;2022-12-18T03:13:06;22.60;;;12.40;;
40629;SDS011;26329;40.388;-3.710;2022-12-18T03:23:19;28.58;;;14.77;;
40629;SDS011;26329;40.388;-3.710;2022-12-18T03:33:29;42.38;;;14.68;;
40629;SDS011;26329;40.388;-3.710;2022-12-18T03:53:58;41.87;;;13.83;;
40629;SDS011;26329;40.388;-3.710;2022-12-18T04:04:07;35.35;;;14.18;;
40629;SDS011;26329;40.388;-3.710;2022-12-18T04:14:12;33.15;;;14.30;;
40629;SDS011;26329;40.388;-3.710;2022-12-18T04:24:17;30.02;;;13.27;;
40629;SDS011;26329;40.388;-3.710;2022-12-18T04:34:22;29.58;;;11.40;;
40629;SDS011;26329;40.388;-3.710;2022-12-18T04:44:27;19.80;;;11.55;;
40629;SDS011;26329;40.388;-3.710;2022-12-18T04:54:30;15.30;;;10.27;;
40629;SDS011;26329;40.388;-3.710;2022-12-18T05:04:35;21.20;;;11.55;;
40629;SDS011;26329;40.388;-3.710;2022-12-18T05:14:37;18.75;;;11.02;;
40629;SDS011;26329;40.388;-3.710;2022-12-18T05:24:39;16.80;;;11.02;;
40629;SDS011;26329;40.388;-3.710;2022-12-18T05:34:42;21.30;;;13.85;;
40629;SDS011;26329;40.388;-3.710;2022-12-18T05:44:44;34.33;;;16.10;;
40629;SDS011;26329;40.388;-3.710;2022-12-18T05:54:48;37.55;;;16.23;;
40629;SDS011;26329;40.388;-3.710;2022-12-18T06:14:56;17.90;;;13.15;;
40629;SDS011;26329;40.388;-3.710;2022-12-18T06:25:00;17.83;;;13.52;;
40629;SDS011;26329;40.388;-3.710;2022-12-18T06:35:21;12.32;;;9.52;;
40629;SDS011;26329;40.388;-3.710;2022-12-18T06:45:43;14.15;;;9.68;;
40629;SDS011;26329;40.388;-3.710;2022-12-18T06:56:05;9.98;;;7.75;;
40629;SDS011;26329;40.388;-3.710;2022-12-18T07:06:18;10.55;;;6.68;;
40629;SDS011;26329;40.388;-3.710;2022-12-18T07:16:24;13.05;;;8.40;;
40629;SDS011;26329;40.388;-3.710;2022-12-18T07:26:35;15.00;;;9.98;;
40629;SDS011;26329;40.388;-3.710;2022-12-18T07:36:39;18.33;;;11.20;;
40629;SDS011;26329;40.388;-3.710;2022-12-18T07:46:44;26.02;;;13.90;;
40629;SDS011;26329;40.388;-3.710;2022-12-18T07:56:52;23.05;;;12.70;;
40629;SDS011;26329;40.388;-3.710;2022-12-18T08:06:54;20.58;;;11.80;;
40629;SDS011;26329;40.388;-3.710;2022-12-18T08:16:58;23.73;;;12.63;;
40629;SDS011;26329;40.388;-3.710;2022-12-18T08:27:00;24.35;;;12.43;;
40629;SDS011;26329;40.388;-3.710;2022-12-18T08:37:02;21.02;;;11.20;;
40629;SDS011;26329;40.388;-3.710;2022-12-18T08:47:05;19.98;;;10.95;;
40629;SDS011;26329;40.388;-3.710;2022-12-18T08:57:07;18.27;;;9.85;;
40629;SDS011;26329;40.388;-3.710;2022-12-18T09:07:10;16.85;;;10.38;;
40629;SDS011;26329;40.388;-3.710;2022-12-18T09:17:11;17.58;;;9.60;;
40629;SDS011;26329;40.388;-3.710;2022-12-18T09:27:14;15.50;;;9.73;;
40629;SDS011;26329;40.388;-3.710;2022-12-18T09:37:17;15.73;;;9.35;;
40629;SDS011;26329;40.388;-3.710;2022-12-18T09:47:23;14.73;;;9.48;;
40629;SDS011;26329;40.388;-3.710;2022-12-18T09:57:34;9.23;;;5.40;;
40629;SDS011;26329;40.388;-3.710;2022-12-18T10:07:47;12.98;;;8.73;;
40629;SDS011;26329;40.388;-3.710;2022-12-18T10:28:43;14.43;;;10.38;;
40629;SDS011;26329;40.388;-3.710;2022-12-18T10:38:48;15.45;;;9.63;;
40629;SDS011;26329;40.388;-3.710;2022-12-18T10:48:52;18.27;;;10.80;;
40629;SDS011;26329;40.388;-3.710;2022-12-18T10:58:58;13.32;;;8.70;;
40629;SDS011;26329;40.388;-3.710;2022-12-18T11:09:17;14.05;;;8.10;;
40629;SDS011;26329;40.388;-3.710;2022-12-18T11:19:34;12.35;;;7.95;;
40629;SDS011;26329;40.388;-3.710;2022-12-18T11:29:39;7.63;;;4.82;;
40629;SDS011;26329;40.388;-3.710;2022-12-18T11:39:52;7.50;;;5.15;;
40629;SDS011;26329;40.388;-3.710;2022-12-18T11:50:03;8.23;;;4.65;;
40629;SDS011;26329;40.388;-3.710;2022-12-18T12:00:16;4.95;;;3.58;;
40629;SDS011;26329;40.388;-3.710;2022-12-18T12:41:15;2.73;;;2.20;;
40629;SDS011;26329;40.388;-3.710;2022-12-18T12:51:40;2.63;;;2.25;;
40629;SDS011;26329;40.388;-3.710;2022-12-18T13:01:50;4.13;;;3.13;;
40629;SDS011;26329;40.388;-3.710;2022-12-18T13:12:03;3.17;;;1.95;;
40629;SDS011;26329;40.388;-3.710;2022-12-18T13:22:36;5.80;;;2.50;;
40629;SDS011;26329;40.388;-3.710;2022-12-18T13:32:41;4.47;;;1.92;;
40629;SDS011;26329;40.388;-3.710;2022-12-18T13:42:43;4.45;;;1.67;;
40629;SDS011;26329;40.388;-3.710;2022-12-18T13:53:04;1.80;;;1.70;;
40629;SDS011;26329;40.388;-3.710;2022-12-18T14:03:15;3.08;;;2.13;;
40629;SDS011;26329;40.388;-3.710;2022-12-18T14:13:32;8.40;;;5.55;;
40629;SDS011;26329;40.388;-3.710;2022-12-18T14:23:38;5.25;;;3.30;;
40629;SDS011;26329;40.388;-3.710;2022-12-18T14:43:44;2.22;;;1.40;;
40629;SDS011;26329;40.388;-3.710;2022-12-18T15:04:30;3.65;;;2.08;;
40629;SDS011;26329;40.388;-3.710;2022-12-18T15:24:34;11.13;;;6.90;;
40629;SDS011;26329;40.388;-3.710;2022-12-18T15:34:36;5.47;;;3.00;;
40629;SDS011;26329;40.388;-3.710;2022-12-18T15:44:38;3.35;;;2.00;;
40629;SDS011;26329;40.388;-3.710;2022-12-18T15:54:39;7.72;;;2.60;;
40629;SDS011;26329;40.388;-3.710;2022-12-18T16:05:00;5.25;;;2.42;;
40629;SDS011;26329;40.388;-3.710;2022-12-18T16:15:02;9.88;;;3.40;;
40629;SDS011;26329;40.388;-3.710;2022-12-18T16:25:05;2.85;;;1.85;;
40629;SDS011;26329;40.388;-3.710;2022-12-18T16:35:08;4.60;;;2.38;;
40629;SDS011;26329;40.388;-3.710;2022-12-18T16:45:16;6.95;;;5.28;;
40629;SDS011;26329;40.388;-3.710;2022-12-18T16:55:18;12.65;;;7.53;;
40629;SDS011;26329;40.388;-3.710;2022-12-18T17:05:21;8.88;;;6.38;;
40629;SDS011;26329;40.388;-3.710;2022-12-18T17:15:22;8.40;;;7.53;;
40629;SDS011;26329;40.388;-3.710;2022-12-18T17:25:24;26.65;;;14.25;;
40629;SDS011;26329;40.388;-3.710;2022-12-18T17:35:25;9.55;;;6.88;;
40629;SDS011;26329;40.388;-3.710;2022-12-18T17:45:27;60.17;;;38.38;;
40629;SDS011;26329;40.388;-3.710;2022-12-18T17:55:29;30.77;;;16.10;;
40629;SDS011;26329;40.388;-3.710;2022-12-18T18:05:30;14.40;;;9.55;;
40629;SDS011;26329;40.388;-3.710;2022-12-18T18:15:32;9.75;;;5.45;;
40629;SDS011;26329;40.388;-3.710;2022-12-18T18:25:36;7.05;;;5.03;;
40629;SDS011;26329;40.388;-3.710;2022-12-18T18:35:41;11.65;;;5.60;;
40629;SDS011;26329;40.388;-3.710;2022-12-18T18:45:45;19.05;;;7.68;;
40629;SDS011;26329;40.388;-3.710;2022-12-18T18:55:47;12.52;;;6.53;;
40629;SDS011;26329;40.388;-3.710;2022-12-18T19:05:56;11.73;;;5.70;;
40629;SDS011;26329;40.388;-3.710;2022-12-18T19:16:03;8.65;;;4.97;;
40629;SDS011;26329;40.388;-3.710;2022-12-18T19:26:09;10.50;;;5.05;;
40629;SDS011;26329;40.388;-3.710;2022-12-18T19:46:21;34.22;;;5.57;;
40629;SDS011;26329;40.388;-3.710;2022-12-18T19:56:24;11.48;;;8.35;;
40629;SDS011;26329;40.388;-3.710;2022-12-18T20:06:29;11.60;;;7.85;;
40629;SDS011;26329;40.388;-3.710;2022-12-18T20:16:34;11.57;;;8.50;;
40629;SDS011;26329;40.388;-3.710;2022-12-18T20:26:36;11.07;;;5.60;;
40629;SDS011;26329;40.388;-3.710;2022-12-18T20:36:38;13.93;;;6.63;;
40629;SDS011;26329;40.388;-3.710;2022-12-18T20:46:41;10.07;;;6.30;;
40629;SDS011;26329;40.388;-3.710;2022-12-18T20:56:43;14.23;;;6.93;;
40629;SDS011;26329;40.388;-3.710;2022-12-18T21:06:45;9.02;;;7.00;;
40629;SDS011;26329;40.388;-3.710;2022-12-18T21:16:49;11.17;;;6.47;;
40629;SDS011;26329;40.388;-3.710;2022-12-18T21:26:55;11.05;;;6.60;;
40629;SDS011;26329;40.388;-3.710;2022-12-18T21:36:58;9.38;;;6.03;;
40629;SDS011;26329;40.388;-3.710;2022-12-18T21:47:01;14.65;;;7.22;;
40629;SDS011;26329;40.388;-3.710;2022-12-18T21:57:04;18.52;;;9.75;;
40629;SDS011;26329;40.388;-3.710;2022-12-18T22:07:08;21.98;;;13.48;;
40629;SDS011;26329;40.388;-3.710;2022-12-18T22:17:12;14.63;;;9.30;;
40629;SDS011;26329;40.388;-3.710;2022-12-18T22:27:15;20.95;;;12.88;;
40629;SDS011;26329;40.388;-3.710;2022-12-18T22:37:16;18.45;;;12.73;;
40629;SDS011;26329;40.388;-3.710;2022-12-18T22:47:18;16.67;;;12.35;;
40629;SDS011;26329;40.388;-3.710;2022-12-18T22:57:21;25.52;;;17.02;;
40629;SDS011;26329;40.388;-3.710;2022-12-18T23:07:23;20.77;;;14.32;;
40629;SDS011;26329;40.388;-3.710;2022-12-18T23:17:27;17.83;;;11.80;;
40629;SDS011;26329;40.388;-3.710;2022-12-18T23:27:30;19.50;;;13.20;;
40629;SDS011;26329;40.388;-3.710;2022-12-18T23:37:34;15.75;;;10.32;;
40629;SDS011;26329;40.388;-3.710;2022-12-18T23:47:36;22.08;;;13.35;;
40629;SDS011;26329;40.388;-3.710;2022-12-18T23:57:39;19.73;;;11.48;;
